sensor_id;sensor_type;location;lat;lon;timestamp;P1;durP1;ratioP1;P2;durP2;ratioP2
17169;SDS011;8700;48.222;16.342;2023-04-06T00:02:16;11.97;;;10.97;;
17169;SDS011;8700;48.222;16.342;2023-04-06T00:05:37;12.33;;;11.20;;
17169;SDS011;8700;48.222;16.342;2023-04-06T00:08:59;13.00;;;11.80;;
17169;SDS011;8700;48.222;16.342;2023-04-06T00:12:20;11.73;;;10.70;;
17169;SDS011;8700;48.222;16.342;2023-04-06T00:15:42;11.50;;;10.67;;
17169;SDS011;8700;48.222;16.342;2023-04-06T00:19:04;11.83;;;10.70;;
17169;SDS011;8700;48.222;16.342;2023-04-06T00:22:26;12.03;;;10.83;;
17169;SDS011;8700;48.222;16.342;2023-04-06T00:25:47;13.40;;;12.10;;
17169;SDS011;8700;48.222;16.342;2023-04-06T00:29:09;11.87;;;10.87;;
17169;SDS011;8700;48.222;16.342;2023-04-06T00:32:30;13.03;;;11.63;;
17169;SDS011;8700;48.222;16.342;2023-04-06T00:35:53;15.23;;;13.70;;
17169;SDS011;8700;48.222;16.342;2023-04-06T00:39:17;12.77;;;11.77;;
17169;SDS011;8700;48.222;16.342;2023-04-06T00:42:41;12.63;;;11.43;;
17169;SDS011;8700;48.222;16.342;2023-04-06T00:46:02;14.33;;;13.03;;
17169;SDS011;8700;48.222;16.342;2023-04-06T00:49:24;12.73;;;11.53;;
17169;SDS011;8700;48.222;16.342;2023-04-06T00:52:47;13.00;;;11.83;;
17169;SDS011;8700;48.222;16.342;2023-04-06T00:56:10;12.43;;;11.13;;
17169;SDS011;8700;48.222;16.342;2023-04-06T00:59:31;14.57;;;12.07;;
17169;SDS011;8700;48.222;16.342;2023-04-06T01:02:52;13.53;;;12.23;;
17169;SDS011;8700;48.222;16.342;2023-04-06T01:06:14;12.63;;;11.43;;
17169;SDS011;8700;48.222;16.342;2023-04-06T01:09:37;12.63;;;11.53;;
17169;SDS011;8700;48.222;16.342;2023-04-06T01:13:00;12.30;;;11.20;;
17169;SDS011;8700;48.222;16.342;2023-04-06T01:16:22;12.87;;;11.67;;
17169;SDS011;8700;48.222;16.342;2023-04-06T01:19:43;12.93;;;11.73;;
17169;SDS011;8700;48.222;16.342;2023-04-06T01:23:06;12.63;;;11.53;;
17169;SDS011;8700;48.222;16.342;2023-04-06T01:26:27;12.00;;;11.03;;
17169;SDS011;8700;48.222;16.342;2023-04-06T01:29:49;13.97;;;12.67;;
17169;SDS011;8700;48.222;16.342;2023-04-06T01:33:11;13.73;;;12.43;;
17169;SDS011;8700;48.222;16.342;2023-04-06T01:36:32;12.57;;;11.57;;
17169;SDS011;8700;48.222;16.342;2023-04-06T01:39:55;13.83;;;12.60;;
17169;SDS011;8700;48.222;16.342;2023-04-06T01:43:16;13.37;;;12.20;;
17169;SDS011;8700;48.222;16.342;2023-04-06T01:46:38;13.93;;;12.63;;
17169;SDS011;8700;48.222;16.342;2023-04-06T01:49:59;14.17;;;12.53;;
17169;SDS011;8700;48.222;16.342;2023-04-06T01:53:22;14.03;;;12.50;;
17169;SDS011;8700;48.222;16.342;2023-04-06T01:56:45;13.67;;;12.20;;
17169;SDS011;8700;48.222;16.342;2023-04-06T02:00:06;12.87;;;11.73;;
17169;SDS011;8700;48.222;16.342;2023-04-06T02:03:28;13.20;;;11.60;;
17169;SDS011;8700;48.222;16.342;2023-04-06T02:06:51;12.67;;;11.50;;
17169;SDS011;8700;48.222;16.342;2023-04-06T02:10:12;13.57;;;12.33;;
17169;SDS011;8700;48.222;16.342;2023-04-06T02:13:36;13.67;;;12.43;;
17169;SDS011;8700;48.222;16.342;2023-04-06T02:16:57;13.40;;;12.10;;
17169;SDS011;8700;48.222;16.342;2023-04-06T02:20:18;13.07;;;11.77;;
17169;SDS011;8700;48.222;16.342;2023-04-06T02:23:40;12.33;;;11.23;;
17169;SDS011;8700;48.222;16.342;2023-04-06T02:27:05;14.03;;;12.80;;
17169;SDS011;8700;48.222;16.342;2023-04-06T02:30:28;12.43;;;11.27;;
17169;SDS011;8700;48.222;16.342;2023-04-06T02:33:51;12.83;;;11.53;;
17169;SDS011;8700;48.222;16.342;2023-04-06T02:37:12;13.53;;;12.30;;
17169;SDS011;8700;48.222;16.342;2023-04-06T02:40:34;15.33;;;12.70;;
17169;SDS011;8700;48.222;16.342;2023-04-06T02:43:56;12.80;;;11.70;;
17169;SDS011;8700;48.222;16.342;2023-04-06T02:47:19;12.87;;;11.70;;
17169;SDS011;8700;48.222;16.342;2023-04-06T02:50:40;13.90;;;12.10;;
17169;SDS011;8700;48.222;16.342;2023-04-06T02:54:02;14.97;;;13.57;;
17169;SDS011;8700;48.222;16.342;2023-04-06T02:57:23;13.20;;;12.00;;
17169;SDS011;8700;48.222;16.342;2023-04-06T03:00:44;13.50;;;12.30;;
17169;SDS011;8700;48.222;16.342;2023-04-06T03:04:07;12.20;;;11.27;;
17169;SDS011;8700;48.222;16.342;2023-04-06T03:07:28;12.87;;;11.67;;
17169;SDS011;8700;48.222;16.342;2023-04-06T03:10:50;13.60;;;12.23;;
17169;SDS011;8700;48.222;16.342;2023-04-06T03:14:11;15.17;;;13.37;;
17169;SDS011;8700;48.222;16.342;2023-04-06T03:17:34;13.07;;;11.97;;
17169;SDS011;8700;48.222;16.342;2023-04-06T03:20:57;13.80;;;12.43;;
17169;SDS011;8700;48.222;16.342;2023-04-06T03:24:19;13.67;;;12.37;;
17169;SDS011;8700;48.222;16.342;2023-04-06T03:27:40;13.80;;;12.50;;
17169;SDS011;8700;48.222;16.342;2023-04-06T03:31:02;13.33;;;12.23;;
17169;SDS011;8700;48.222;16.342;2023-04-06T03:34:23;14.50;;;13.00;;
17169;SDS011;8700;48.222;16.342;2023-04-06T03:37:46;12.97;;;11.67;;
17169;SDS011;8700;48.222;16.342;2023-04-06T03:41:07;12.37;;;11.37;;
17169;SDS011;8700;48.222;16.342;2023-04-06T03:44:28;13.40;;;12.30;;
17169;SDS011;8700;48.222;16.342;2023-04-06T03:47:50;12.50;;;11.47;;
17169;SDS011;8700;48.222;16.342;2023-04-06T03:51:11;14.27;;;12.97;;
17169;SDS011;8700;48.222;16.342;2023-04-06T03:54:34;14.10;;;12.93;;
17169;SDS011;8700;48.222;16.342;2023-04-06T03:57:55;13.67;;;12.30;;
17169;SDS011;8700;48.222;16.342;2023-04-06T04:01:17;13.40;;;12.27;;
17169;SDS011;8700;48.222;16.342;2023-04-06T04:04:38;13.43;;;12.20;;
17169;SDS011;8700;48.222;16.342;2023-04-06T04:07:59;13.27;;;12.17;;
17169;SDS011;8700;48.222;16.342;2023-04-06T04:11:22;12.87;;;11.87;;
17169;SDS011;8700;48.222;16.342;2023-04-06T04:14:43;13.33;;;12.03;;
17169;SDS011;8700;48.222;16.342;2023-04-06T04:18:05;12.43;;;11.33;;
17169;SDS011;8700;48.222;16.342;2023-04-06T04:21:28;14.50;;;13.20;;
17169;SDS011;8700;48.222;16.342;2023-04-06T04:24:51;22.40;;;14.50;;
17169;SDS011;8700;48.222;16.342;2023-04-06T04:28:13;15.67;;;13.93;;
17169;SDS011;8700;48.222;16.342;2023-04-06T04:31:35;14.93;;;13.73;;
17169;SDS011;8700;48.222;16.342;2023-04-06T04:34:56;15.30;;;13.77;;
17169;SDS011;8700;48.222;16.342;2023-04-06T04:38:17;15.53;;;14.07;;
17169;SDS011;8700;48.222;16.342;2023-04-06T04:41:39;13.83;;;12.53;;
17169;SDS011;8700;48.222;16.342;2023-04-06T04:45:01;14.70;;;13.40;;
17169;SDS011;8700;48.222;16.342;2023-04-06T04:48:23;15.67;;;13.40;;
17169;SDS011;8700;48.222;16.342;2023-04-06T04:51:44;15.10;;;12.70;;
17169;SDS011;8700;48.222;16.342;2023-04-06T04:55:06;15.60;;;14.00;;
17169;SDS011;8700;48.222;16.342;2023-04-06T04:58:28;14.03;;;12.83;;
17169;SDS011;8700;48.222;16.342;2023-04-06T05:01:51;15.10;;;13.80;;
17169;SDS011;8700;48.222;16.342;2023-04-06T05:05:12;17.03;;;15.53;;
17169;SDS011;8700;48.222;16.342;2023-04-06T05:08:34;16.57;;;14.73;;
17169;SDS011;8700;48.222;16.342;2023-04-06T05:11:55;16.33;;;13.30;;
17169;SDS011;8700;48.222;16.342;2023-04-06T05:15:17;14.93;;;13.63;;
17169;SDS011;8700;48.222;16.342;2023-04-06T05:18:40;15.63;;;13.87;;
17169;SDS011;8700;48.222;16.342;2023-04-06T05:22:01;16.43;;;14.83;;
17169;SDS011;8700;48.222;16.342;2023-04-06T05:25:23;15.93;;;14.23;;
17169;SDS011;8700;48.222;16.342;2023-04-06T05:28:45;14.37;;;13.03;;
17169;SDS011;8700;48.222;16.342;2023-04-06T05:32:06;15.23;;;13.83;;
17169;SDS011;8700;48.222;16.342;2023-04-06T05:35:29;14.43;;;13.13;;
17169;SDS011;8700;48.222;16.342;2023-04-06T05:38:50;13.63;;;12.27;;
17169;SDS011;8700;48.222;16.342;2023-04-06T05:42:12;14.20;;;12.87;;
17169;SDS011;8700;48.222;16.342;2023-04-06T05:45:34;15.93;;;14.43;;
17169;SDS011;8700;48.222;16.342;2023-04-06T05:48:56;16.83;;;15.13;;
17169;SDS011;8700;48.222;16.342;2023-04-06T05:52:18;15.80;;;14.37;;
17169;SDS011;8700;48.222;16.342;2023-04-06T05:55:40;17.60;;;15.80;;
17169;SDS011;8700;48.222;16.342;2023-04-06T05:59:01;16.13;;;14.63;;
17169;SDS011;8700;48.222;16.342;2023-04-06T06:02:23;17.07;;;15.53;;
17169;SDS011;8700;48.222;16.342;2023-04-06T06:05:47;16.20;;;14.63;;
17169;SDS011;8700;48.222;16.342;2023-04-06T06:09:10;16.13;;;14.80;;
17169;SDS011;8700;48.222;16.342;2023-04-06T06:12:31;15.77;;;14.20;;
17169;SDS011;8700;48.222;16.342;2023-04-06T06:15:53;15.93;;;14.63;;
17169;SDS011;8700;48.222;16.342;2023-04-06T06:19:14;16.73;;;15.33;;
17169;SDS011;8700;48.222;16.342;2023-04-06T06:22:36;17.67;;;14.07;;
17169;SDS011;8700;48.222;16.342;2023-04-06T06:26:00;14.47;;;13.27;;
17169;SDS011;8700;48.222;16.342;2023-04-06T06:29:22;14.87;;;13.40;;
17169;SDS011;8700;48.222;16.342;2023-04-06T06:32:44;15.50;;;14.00;;
17169;SDS011;8700;48.222;16.342;2023-04-06T06:36:05;14.60;;;13.20;;
17169;SDS011;8700;48.222;16.342;2023-04-06T06:39:27;18.10;;;16.50;;
17169;SDS011;8700;48.222;16.342;2023-04-06T06:42:50;15.80;;;14.27;;
17169;SDS011;8700;48.222;16.342;2023-04-06T06:46:12;18.97;;;17.10;;
17169;SDS011;8700;48.222;16.342;2023-04-06T06:49:34;15.90;;;14.37;;
17169;SDS011;8700;48.222;16.342;2023-04-06T06:52:56;16.37;;;14.77;;
17169;SDS011;8700;48.222;16.342;2023-04-06T06:56:17;70.43;;;47.10;;
17169;SDS011;8700;48.222;16.342;2023-04-06T06:59:39;68.20;;;44.33;;
17169;SDS011;8700;48.222;16.342;2023-04-06T07:03:01;50.60;;;45.10;;
17169;SDS011;8700;48.222;16.342;2023-04-06T07:06:23;24.17;;;21.87;;
17169;SDS011;8700;48.222;16.342;2023-04-06T07:09:44;17.03;;;15.47;;
17169;SDS011;8700;48.222;16.342;2023-04-06T07:13:05;16.20;;;14.60;;
17169;SDS011;8700;48.222;16.342;2023-04-06T07:16:28;15.93;;;14.53;;
17169;SDS011;8700;48.222;16.342;2023-04-06T07:19:49;15.57;;;14.27;;
17169;SDS011;8700;48.222;16.342;2023-04-06T07:23:11;14.33;;;12.83;;
17169;SDS011;8700;48.222;16.342;2023-04-06T07:26:32;13.13;;;11.83;;
17169;SDS011;8700;48.222;16.342;2023-04-06T07:29:54;14.73;;;13.33;;
17169;SDS011;8700;48.222;16.342;2023-04-06T07:33:16;15.17;;;13.80;;
17169;SDS011;8700;48.222;16.342;2023-04-06T07:36:38;15.20;;;13.90;;
17169;SDS011;8700;48.222;16.342;2023-04-06T07:39:59;12.47;;;11.17;;
17169;SDS011;8700;48.222;16.342;2023-04-06T07:43:21;14.10;;;12.77;;
17169;SDS011;8700;48.222;16.342;2023-04-06T07:46:42;14.80;;;13.30;;
17169;SDS011;8700;48.222;16.342;2023-04-06T07:50:06;11.23;;;10.33;;
17169;SDS011;8700;48.222;16.342;2023-04-06T07:53:28;12.27;;;11.07;;
17169;SDS011;8700;48.222;16.342;2023-04-06T07:56:49;13.40;;;12.07;;
17169;SDS011;8700;48.222;16.342;2023-04-06T08:00:11;11.80;;;10.73;;
17169;SDS011;8700;48.222;16.342;2023-04-06T08:03:33;12.13;;;11.03;;
17169;SDS011;8700;48.222;16.342;2023-04-06T08:06:57;12.20;;;11.00;;
17169;SDS011;8700;48.222;16.342;2023-04-06T08:10:19;11.57;;;10.47;;
17169;SDS011;8700;48.222;16.342;2023-04-06T08:13:40;11.57;;;10.50;;
17169;SDS011;8700;48.222;16.342;2023-04-06T08:17:02;12.53;;;10.27;;
17169;SDS011;8700;48.222;16.342;2023-04-06T08:20:23;12.03;;;10.73;;
17169;SDS011;8700;48.222;16.342;2023-04-06T08:23:46;11.67;;;10.57;;
17169;SDS011;8700;48.222;16.342;2023-04-06T08:27:07;14.23;;;11.80;;
17169;SDS011;8700;48.222;16.342;2023-04-06T08:30:29;10.93;;;9.60;;
17169;SDS011;8700;48.222;16.342;2023-04-06T08:33:50;9.43;;;8.50;;
17169;SDS011;8700;48.222;16.342;2023-04-06T08:37:12;9.87;;;8.97;;
17169;SDS011;8700;48.222;16.342;2023-04-06T08:40:37;9.97;;;9.07;;
17169;SDS011;8700;48.222;16.342;2023-04-06T08:44:03;9.43;;;8.53;;
17169;SDS011;8700;48.222;16.342;2023-04-06T08:47:25;10.50;;;9.70;;
17169;SDS011;8700;48.222;16.342;2023-04-06T08:50:46;12.33;;;11.23;;
17169;SDS011;8700;48.222;16.342;2023-04-06T08:54:11;12.30;;;10.88;;
17169;SDS011;8700;48.222;16.342;2023-04-06T08:57:34;11.95;;;10.93;;
17169;SDS011;8700;48.222;16.342;2023-04-06T09:00:57;13.27;;;12.07;;
17169;SDS011;8700;48.222;16.342;2023-04-06T09:04:19;10.85;;;10.10;;
17169;SDS011;8700;48.222;16.342;2023-04-06T09:07:40;11.93;;;10.77;;
17169;SDS011;8700;48.222;16.342;2023-04-06T09:11:02;11.45;;;10.65;;
17169;SDS011;8700;48.222;16.342;2023-04-06T09:14:35;11.60;;;10.70;;
17169;SDS011;8700;48.222;16.342;2023-04-06T09:17:57;9.98;;;9.27;;
17169;SDS011;8700;48.222;16.342;2023-04-06T09:21:19;8.55;;;7.75;;
17169;SDS011;8700;48.222;16.342;2023-04-06T09:24:41;8.55;;;7.93;;
17169;SDS011;8700;48.222;16.342;2023-04-06T09:28:06;9.45;;;8.75;;
17169;SDS011;8700;48.222;16.342;2023-04-06T09:31:29;9.07;;;8.27;;
17169;SDS011;8700;48.222;16.342;2023-04-06T09:34:52;10.93;;;10.02;;
17169;SDS011;8700;48.222;16.342;2023-04-06T09:38:14;10.43;;;9.55;;
17169;SDS011;8700;48.222;16.342;2023-04-06T09:41:37;9.85;;;8.90;;
17169;SDS011;8700;48.222;16.342;2023-04-06T09:44:58;10.27;;;9.38;;
17169;SDS011;8700;48.222;16.342;2023-04-06T09:48:21;8.48;;;7.88;;
17169;SDS011;8700;48.222;16.342;2023-04-06T09:51:45;8.73;;;8.00;;
17169;SDS011;8700;48.222;16.342;2023-04-06T09:55:07;7.78;;;7.20;;
17169;SDS011;8700;48.222;16.342;2023-04-06T09:58:32;8.35;;;7.75;;
17169;SDS011;8700;48.222;16.342;2023-04-06T10:01:58;7.47;;;6.97;;
17169;SDS011;8700;48.222;16.342;2023-04-06T10:05:22;7.28;;;6.75;;
17169;SDS011;8700;48.222;16.342;2023-04-06T10:08:53;7.80;;;6.95;;
17169;SDS011;8700;48.222;16.342;2023-04-06T10:12:17;7.65;;;7.05;;
17169;SDS011;8700;48.222;16.342;2023-04-06T10:15:39;7.43;;;6.93;;
17169;SDS011;8700;48.222;16.342;2023-04-06T10:19:04;7.18;;;6.68;;
17169;SDS011;8700;48.222;16.342;2023-04-06T10:22:36;6.78;;;6.28;;
17169;SDS011;8700;48.222;16.342;2023-04-06T10:26:12;7.75;;;7.13;;
17169;SDS011;8700;48.222;16.342;2023-04-06T10:29:42;7.78;;;7.13;;
17169;SDS011;8700;48.222;16.342;2023-04-06T10:33:12;9.13;;;8.35;;
17169;SDS011;8700;48.222;16.342;2023-04-06T10:36:34;7.50;;;7.00;;
17169;SDS011;8700;48.222;16.342;2023-04-06T10:39:57;9.05;;;8.00;;
17169;SDS011;8700;48.222;16.342;2023-04-06T10:43:20;7.05;;;6.45;;
17169;SDS011;8700;48.222;16.342;2023-04-06T10:46:42;8.85;;;7.95;;
17169;SDS011;8700;48.222;16.342;2023-04-06T10:50:14;7.72;;;7.03;;
17169;SDS011;8700;48.222;16.342;2023-04-06T10:53:36;8.18;;;7.55;;
17169;SDS011;8700;48.222;16.342;2023-04-06T10:56:59;7.45;;;6.85;;
17169;SDS011;8700;48.222;16.342;2023-04-06T11:00:21;7.40;;;6.80;;
17169;SDS011;8700;48.222;16.342;2023-04-06T11:03:43;7.45;;;6.90;;
17169;SDS011;8700;48.222;16.342;2023-04-06T11:07:05;9.18;;;8.57;;
17169;SDS011;8700;48.222;16.342;2023-04-06T11:10:26;8.75;;;8.00;;
17169;SDS011;8700;48.222;16.342;2023-04-06T11:13:51;9.35;;;8.65;;
17169;SDS011;8700;48.222;16.342;2023-04-06T11:17:13;7.75;;;7.25;;
17169;SDS011;8700;48.222;16.342;2023-04-06T11:20:34;8.95;;;8.25;;
17169;SDS011;8700;48.222;16.342;2023-04-06T11:24:03;9.77;;;8.95;;
17169;SDS011;8700;48.222;16.342;2023-04-06T11:27:28;8.07;;;7.47;;
17169;SDS011;8700;48.222;16.342;2023-04-06T11:30:54;7.45;;;6.95;;
17169;SDS011;8700;48.222;16.342;2023-04-06T11:34:17;7.45;;;6.78;;
17169;SDS011;8700;48.222;16.342;2023-04-06T11:37:39;7.82;;;7.18;;
17169;SDS011;8700;48.222;16.342;2023-04-06T11:41:03;5.80;;;5.40;;
17169;SDS011;8700;48.222;16.342;2023-04-06T11:44:34;6.70;;;6.20;;
17169;SDS011;8700;48.222;16.342;2023-04-06T11:47:59;7.05;;;6.55;;
17169;SDS011;8700;48.222;16.342;2023-04-06T11:51:22;5.47;;;5.07;;
17169;SDS011;8700;48.222;16.342;2023-04-06T11:54:44;7.20;;;6.70;;
17169;SDS011;8700;48.222;16.342;2023-04-06T11:58:06;7.07;;;6.57;;
17169;SDS011;8700;48.222;16.342;2023-04-06T12:01:28;6.80;;;6.28;;
17169;SDS011;8700;48.222;16.342;2023-04-06T12:04:51;7.75;;;7.05;;
17169;SDS011;8700;48.222;16.342;2023-04-06T12:08:12;6.65;;;6.15;;
17169;SDS011;8700;48.222;16.342;2023-04-06T12:11:34;6.47;;;6.05;;
17169;SDS011;8700;48.222;16.342;2023-04-06T12:14:55;6.20;;;5.70;;
17169;SDS011;8700;48.222;16.342;2023-04-06T12:18:17;7.50;;;6.78;;
17169;SDS011;8700;48.222;16.342;2023-04-06T12:21:40;6.65;;;6.18;;
17169;SDS011;8700;48.222;16.342;2023-04-06T12:25:02;7.75;;;7.05;;
17169;SDS011;8700;48.222;16.342;2023-04-06T12:28:27;7.93;;;7.22;;
17169;SDS011;8700;48.222;16.342;2023-04-06T12:31:48;7.30;;;6.75;;
17169;SDS011;8700;48.222;16.342;2023-04-06T12:35:10;7.32;;;6.63;;
17169;SDS011;8700;48.222;16.342;2023-04-06T12:38:36;6.82;;;6.35;;
17169;SDS011;8700;48.222;16.342;2023-04-06T12:41:59;7.32;;;6.72;;
17169;SDS011;8700;48.222;16.342;2023-04-06T12:45:21;7.45;;;6.72;;
17169;SDS011;8700;48.222;16.342;2023-04-06T12:48:44;6.78;;;6.13;;
17169;SDS011;8700;48.222;16.342;2023-04-06T12:52:05;7.28;;;6.78;;
17169;SDS011;8700;48.222;16.342;2023-04-06T12:55:31;6.82;;;6.32;;
17169;SDS011;8700;48.222;16.342;2023-04-06T12:58:55;8.32;;;6.90;;
17169;SDS011;8700;48.222;16.342;2023-04-06T13:02:16;6.78;;;6.18;;
17169;SDS011;8700;48.222;16.342;2023-04-06T13:05:43;7.22;;;6.72;;
17169;SDS011;8700;48.222;16.342;2023-04-06T13:09:05;5.93;;;5.53;;
17169;SDS011;8700;48.222;16.342;2023-04-06T13:12:28;6.90;;;6.20;;
17169;SDS011;8700;48.222;16.342;2023-04-06T13:15:50;7.28;;;6.60;;
17169;SDS011;8700;48.222;16.342;2023-04-06T13:19:12;6.35;;;5.95;;
17169;SDS011;8700;48.222;16.342;2023-04-06T13:22:33;6.93;;;6.47;;
17169;SDS011;8700;48.222;16.342;2023-04-06T13:25:58;7.28;;;6.75;;
17169;SDS011;8700;48.222;16.342;2023-04-06T13:29:22;7.60;;;6.95;;
17169;SDS011;8700;48.222;16.342;2023-04-06T13:32:44;7.45;;;6.72;;
17169;SDS011;8700;48.222;16.342;2023-04-06T13:36:05;8.90;;;6.90;;
17169;SDS011;8700;48.222;16.342;2023-04-06T13:39:28;6.45;;;5.80;;
17169;SDS011;8700;48.222;16.342;2023-04-06T13:42:49;7.22;;;6.07;;
17169;SDS011;8700;48.222;16.342;2023-04-06T13:46:12;6.57;;;5.97;;
17169;SDS011;8700;48.222;16.342;2023-04-06T13:49:34;7.30;;;6.50;;
17169;SDS011;8700;48.222;16.342;2023-04-06T13:52:56;5.63;;;5.22;;
17169;SDS011;8700;48.222;16.342;2023-04-06T13:56:17;6.82;;;6.43;;
17169;SDS011;8700;48.222;16.342;2023-04-06T13:59:54;7.57;;;6.95;;
17169;SDS011;8700;48.222;16.342;2023-04-06T14:03:17;6.97;;;6.47;;
17169;SDS011;8700;48.222;16.342;2023-04-06T14:06:38;6.18;;;5.82;;
17169;SDS011;8700;48.222;16.342;2023-04-06T14:10:00;7.32;;;6.82;;
17169;SDS011;8700;48.222;16.342;2023-04-06T14:13:22;7.93;;;7.28;;
17169;SDS011;8700;48.222;16.342;2023-04-06T14:16:43;7.20;;;6.70;;
17169;SDS011;8700;48.222;16.342;2023-04-06T14:20:07;6.45;;;6.05;;
17169;SDS011;8700;48.222;16.342;2023-04-06T14:23:33;8.00;;;7.43;;
17169;SDS011;8700;48.222;16.342;2023-04-06T14:26:54;8.38;;;7.43;;
17169;SDS011;8700;48.222;16.342;2023-04-06T14:30:17;7.05;;;6.55;;
17169;SDS011;8700;48.222;16.342;2023-04-06T14:33:39;7.82;;;7.30;;
17169;SDS011;8700;48.222;16.342;2023-04-06T14:37:02;7.97;;;7.28;;
17169;SDS011;8700;48.222;16.342;2023-04-06T14:40:23;7.47;;;6.97;;
17169;SDS011;8700;48.222;16.342;2023-04-06T14:43:45;8.13;;;7.53;;
17169;SDS011;8700;48.222;16.342;2023-04-06T14:47:07;8.43;;;7.90;;
17169;SDS011;8700;48.222;16.342;2023-04-06T14:50:28;8.63;;;8.13;;
17169;SDS011;8700;48.222;16.342;2023-04-06T14:53:51;8.60;;;8.00;;
17169;SDS011;8700;48.222;16.342;2023-04-06T14:57:13;9.10;;;8.50;;
17169;SDS011;8700;48.222;16.342;2023-04-06T15:00:34;8.68;;;7.97;;
17169;SDS011;8700;48.222;16.342;2023-04-06T15:03:55;9.05;;;8.35;;
17169;SDS011;8700;48.222;16.342;2023-04-06T15:07:16;9.02;;;8.32;;
17169;SDS011;8700;48.222;16.342;2023-04-06T15:10:39;11.32;;;10.57;;
17169;SDS011;8700;48.222;16.342;2023-04-06T15:14:00;10.30;;;9.43;;
17169;SDS011;8700;48.222;16.342;2023-04-06T15:17:22;12.07;;;9.93;;
17169;SDS011;8700;48.222;16.342;2023-04-06T15:20:44;10.27;;;9.57;;
17169;SDS011;8700;48.222;16.342;2023-04-06T15:24:06;10.90;;;10.00;;
17169;SDS011;8700;48.222;16.342;2023-04-06T15:27:29;10.85;;;10.15;;
17169;SDS011;8700;48.222;16.342;2023-04-06T15:30:50;9.85;;;9.23;;
17169;SDS011;8700;48.222;16.342;2023-04-06T15:34:12;10.30;;;9.13;;
17169;SDS011;8700;48.222;16.342;2023-04-06T15:37:34;10.40;;;9.77;;
17169;SDS011;8700;48.222;16.342;2023-04-06T15:40:57;11.23;;;10.45;;
17169;SDS011;8700;48.222;16.342;2023-04-06T15:44:19;10.70;;;9.98;;
17169;SDS011;8700;48.222;16.342;2023-04-06T15:47:41;10.02;;;9.38;;
17169;SDS011;8700;48.222;16.342;2023-04-06T15:51:03;9.77;;;9.02;;
17169;SDS011;8700;48.222;16.342;2023-04-06T15:54:25;10.70;;;9.90;;
17169;SDS011;8700;48.222;16.342;2023-04-06T15:57:46;9.80;;;9.07;;
17169;SDS011;8700;48.222;16.342;2023-04-06T16:01:12;10.15;;;9.55;;
17169;SDS011;8700;48.222;16.342;2023-04-06T16:04:35;10.43;;;9.63;;
17169;SDS011;8700;48.222;16.342;2023-04-06T16:07:56;11.77;;;10.88;;
17169;SDS011;8700;48.222;16.342;2023-04-06T16:11:17;9.27;;;8.57;;
17169;SDS011;8700;48.222;16.342;2023-04-06T16:14:39;10.52;;;9.82;;
17169;SDS011;8700;48.222;16.342;2023-04-06T16:18:02;10.25;;;9.23;;
17169;SDS011;8700;48.222;16.342;2023-04-06T16:21:24;10.82;;;9.88;;
17169;SDS011;8700;48.222;16.342;2023-04-06T16:24:46;9.77;;;9.07;;
17169;SDS011;8700;48.222;16.342;2023-04-06T16:28:07;10.10;;;9.40;;
17169;SDS011;8700;48.222;16.342;2023-04-06T16:31:28;11.15;;;10.27;;
17169;SDS011;8700;48.222;16.342;2023-04-06T16:34:52;10.80;;;10.10;;
17169;SDS011;8700;48.222;16.342;2023-04-06T16:38:14;11.17;;;10.27;;
17169;SDS011;8700;48.222;16.342;2023-04-06T16:41:35;10.73;;;10.03;;
17169;SDS011;8700;48.222;16.342;2023-04-06T16:44:57;10.40;;;9.63;;
17169;SDS011;8700;48.222;16.342;2023-04-06T16:48:19;11.00;;;10.00;;
17169;SDS011;8700;48.222;16.342;2023-04-06T16:51:41;10.77;;;9.97;;
17169;SDS011;8700;48.222;16.342;2023-04-06T16:55:03;10.50;;;9.50;;
17169;SDS011;8700;48.222;16.342;2023-04-06T16:58:25;11.63;;;10.53;;
17169;SDS011;8700;48.222;16.342;2023-04-06T17:01:46;10.60;;;9.83;;
17169;SDS011;8700;48.222;16.342;2023-04-06T17:05:08;11.48;;;10.57;;
17169;SDS011;8700;48.222;16.342;2023-04-06T17:08:30;11.50;;;10.60;;
17169;SDS011;8700;48.222;16.342;2023-04-06T17:11:51;10.40;;;9.47;;
17169;SDS011;8700;48.222;16.342;2023-04-06T17:15:13;12.20;;;11.23;;
17169;SDS011;8700;48.222;16.342;2023-04-06T17:18:35;11.47;;;10.67;;
17169;SDS011;8700;48.222;16.342;2023-04-06T17:21:56;10.67;;;9.77;;
17169;SDS011;8700;48.222;16.342;2023-04-06T17:25:19;13.87;;;12.80;;
17169;SDS011;8700;48.222;16.342;2023-04-06T17:28:40;11.90;;;11.10;;
17169;SDS011;8700;48.222;16.342;2023-04-06T17:32:02;12.43;;;11.53;;
17169;SDS011;8700;48.222;16.342;2023-04-06T17:35:24;11.80;;;10.90;;
17169;SDS011;8700;48.222;16.342;2023-04-06T17:38:46;13.30;;;12.30;;
17169;SDS011;8700;48.222;16.342;2023-04-06T17:42:08;11.97;;;11.17;;
17169;SDS011;8700;48.222;16.342;2023-04-06T17:45:30;12.47;;;11.27;;
17169;SDS011;8700;48.222;16.342;2023-04-06T17:48:51;13.30;;;12.30;;
17169;SDS011;8700;48.222;16.342;2023-04-06T17:52:12;15.60;;;14.47;;
17169;SDS011;8700;48.222;16.342;2023-04-06T17:55:34;12.67;;;11.67;;
17169;SDS011;8700;48.222;16.342;2023-04-06T17:58:57;13.27;;;12.30;;
17169;SDS011;8700;48.222;16.342;2023-04-06T18:02:18;13.40;;;12.37;;
17169;SDS011;8700;48.222;16.342;2023-04-06T18:05:40;13.33;;;12.43;;
17169;SDS011;8700;48.222;16.342;2023-04-06T18:09:01;13.37;;;12.40;;
17169;SDS011;8700;48.222;16.342;2023-04-06T18:12:23;13.47;;;12.37;;
17169;SDS011;8700;48.222;16.342;2023-04-06T18:15:45;14.47;;;13.43;;
17169;SDS011;8700;48.222;16.342;2023-04-06T18:19:06;14.23;;;13.17;;
17169;SDS011;8700;48.222;16.342;2023-04-06T18:22:28;14.80;;;13.70;;
17169;SDS011;8700;48.222;16.342;2023-04-06T18:25:51;14.80;;;13.83;;
17169;SDS011;8700;48.222;16.342;2023-04-06T18:29:12;15.47;;;14.37;;
17169;SDS011;8700;48.222;16.342;2023-04-06T18:32:35;15.63;;;14.40;;
17169;SDS011;8700;48.222;16.342;2023-04-06T18:35:56;15.93;;;14.83;;
17169;SDS011;8700;48.222;16.342;2023-04-06T18:39:18;14.13;;;13.13;;
17169;SDS011;8700;48.222;16.342;2023-04-06T18:42:39;15.50;;;14.23;;
17169;SDS011;8700;48.222;16.342;2023-04-06T18:46:00;15.90;;;14.47;;
17169;SDS011;8700;48.222;16.342;2023-04-06T18:49:24;15.53;;;14.20;;
17169;SDS011;8700;48.222;16.342;2023-04-06T18:52:45;15.83;;;14.73;;
17169;SDS011;8700;48.222;16.342;2023-04-06T18:56:13;15.03;;;14.03;;
17169;SDS011;8700;48.222;16.342;2023-04-06T18:59:36;15.37;;;14.17;;
17169;SDS011;8700;48.222;16.342;2023-04-06T19:02:58;13.63;;;12.63;;
17169;SDS011;8700;48.222;16.342;2023-04-06T19:06:21;14.77;;;13.77;;
17169;SDS011;8700;48.222;16.342;2023-04-06T19:09:43;14.30;;;13.20;;
17169;SDS011;8700;48.222;16.342;2023-04-06T19:13:04;13.67;;;12.67;;
17169;SDS011;8700;48.222;16.342;2023-04-06T19:16:26;14.13;;;12.97;;
17169;SDS011;8700;48.222;16.342;2023-04-06T19:19:47;14.47;;;13.30;;
17169;SDS011;8700;48.222;16.342;2023-04-06T19:23:13;13.43;;;12.43;;
17169;SDS011;8700;48.222;16.342;2023-04-06T19:26:36;15.10;;;13.90;;
17169;SDS011;8700;48.222;16.342;2023-04-06T19:30:03;14.50;;;13.60;;
17169;SDS011;8700;48.222;16.342;2023-04-06T19:33:30;14.60;;;13.57;;
17169;SDS011;8700;48.222;16.342;2023-04-06T19:36:52;14.73;;;13.63;;
17169;SDS011;8700;48.222;16.342;2023-04-06T19:40:15;12.67;;;11.87;;
17169;SDS011;8700;48.222;16.342;2023-04-06T19:43:36;13.70;;;12.60;;
17169;SDS011;8700;48.222;16.342;2023-04-06T19:46:58;13.47;;;12.40;;
17169;SDS011;8700;48.222;16.342;2023-04-06T19:50:19;12.37;;;11.47;;
17169;SDS011;8700;48.222;16.342;2023-04-06T19:53:41;13.07;;;12.07;;
17169;SDS011;8700;48.222;16.342;2023-04-06T19:57:04;11.63;;;10.73;;